createdAt,value
2018-11-12T00:00:08.212Z,20.88
2018-11-12T00:01:39.687Z,20.85
2018-11-12T00:03:11.262Z,20.87
2018-11-12T00:04:42.836Z,20.82
2018-11-12T00:06:14.508Z,20.88
2018-11-12T00:07:45.983Z,20.87
2018-11-12T00:09:17.568Z,20.80
2018-11-12T00:10:49.435Z,20.85
2018-11-12T00:12:20.705Z,20.85
2018-11-12T00:13:52.279Z,20.89
2018-11-12T00:15:23.854Z,20.89
2018-11-12T00:16:55.631Z,20.97
2018-11-12T00:18:27.102Z,20.89
2018-11-12T00:19:58.578Z,21.01
2018-11-12T00:21:30.152Z,20.95
2018-11-12T00:23:01.725Z,20.88
2018-11-12T00:24:33.298Z,20.89
2018-11-12T00:26:04.872Z,20.84
2018-11-12T00:27:36.447Z,20.87
2018-11-12T00:29:08.024Z,20.94
2018-11-12T00:30:39.595Z,20.92
2018-11-12T00:32:11.170Z,20.99
2018-11-12T00:33:42.744Z,20.97
2018-11-12T00:35:14.318Z,20.97
2018-11-12T00:36:45.992Z,20.91
2018-11-12T00:38:17.466Z,20.85
2018-11-12T00:39:49.041Z,20.99
2018-11-12T00:41:20.615Z,20.91
2018-11-12T00:42:52.494Z,20.97
2018-11-12T00:44:23.763Z,20.89
2018-11-12T00:45:55.337Z,20.89
2018-11-12T00:47:26.912Z,20.91
2018-11-12T00:48:58.487Z,20.88
2018-11-12T00:50:30.060Z,20.85
2018-11-12T00:52:01.637Z,20.88
2018-11-12T00:53:33.208Z,20.89
2018-11-12T00:55:04.881Z,20.85
2018-11-12T00:56:36.355Z,20.91
2018-11-12T00:58:07.930Z,20.91
2018-11-12T00:59:39.504Z,20.80
2018-11-12T01:01:11.077Z,20.82
2018-11-12T01:02:42.651Z,20.72
2018-11-12T01:04:14.330Z,20.69
2018-11-12T01:05:45.799Z,20.69
2018-11-12T01:07:17.473Z,20.69
2018-11-12T01:08:48.953Z,20.73
2018-11-12T01:10:20.522Z,20.70
2018-11-12T01:11:52.095Z,20.73
2018-11-12T01:13:23.768Z,20.67
2018-11-12T01:14:55.770Z,20.64
2018-11-12T01:16:26.817Z,20.61
2018-11-12T01:17:58.393Z,20.67
2018-11-12T01:19:30.064Z,20.70
2018-11-12T01:21:01.538Z,20.54
2018-11-12T01:22:33.111Z,20.52
2018-11-12T01:24:04.685Z,20.57
2018-11-12T01:25:36.262Z,20.43
2018-11-12T01:27:07.833Z,20.41
2018-11-12T01:28:39.408Z,20.38
2018-11-12T01:30:10.981Z,20.33
2018-11-12T01:33:14.233Z,20.32
2018-11-12T01:34:45.703Z,20.38
2018-11-12T01:36:17.276Z,20.43
2018-11-12T01:37:48.850Z,20.47
2018-11-12T01:39:20.427Z,20.41
2018-11-12T01:40:51.998Z,20.43
2018-11-12T01:42:23.571Z,20.43
2018-11-12T01:43:55.144Z,20.51
2018-11-12T01:45:26.717Z,20.55
2018-11-12T01:46:58.292Z,20.58
2018-11-12T01:48:29.895Z,20.50
2018-11-12T01:50:01.438Z,20.51
2018-11-12T01:51:33.117Z,20.47
2018-11-12T01:53:04.589Z,20.42
2018-11-12T01:54:36.160Z,20.26
2018-11-12T01:56:07.732Z,20.42
2018-11-12T01:57:39.306Z,20.39
2018-11-12T01:59:10.922Z,20.38
2018-11-12T02:00:42.454Z,20.28
2018-11-12T02:02:14.027Z,20.29
2018-11-12T02:03:46.129Z,20.29
2018-11-12T02:05:17.174Z,20.41
2018-11-12T02:06:48.750Z,20.35
2018-11-12T02:08:20.322Z,20.31
2018-11-12T02:09:52.098Z,20.20
2018-11-12T02:11:23.470Z,20.28
2018-11-12T02:12:55.043Z,20.21
2018-11-12T02:14:26.706Z,20.20
2018-11-12T02:15:58.290Z,20.18
2018-11-12T02:17:29.790Z,20.10
2018-11-12T02:19:01.341Z,20.05
2018-11-12T02:20:32.912Z,20.06
2018-11-12T02:22:04.485Z,20.02
2018-11-12T02:23:36.060Z,19.88
2018-11-12T02:25:07.632Z,19.80
2018-11-12T02:26:39.206Z,19.81
2018-11-12T02:28:10.879Z,19.78
2018-11-12T02:29:42.882Z,19.86
2018-11-12T02:31:13.926Z,19.68
2018-11-12T02:32:45.504Z,19.65
2018-11-12T02:34:17.073Z,19.73
2018-11-12T02:35:48.646Z,19.69
2018-11-12T02:37:20.221Z,19.65
2018-11-12T02:38:52.098Z,19.59
2018-11-12T02:40:23.368Z,19.46
2018-11-12T02:41:54.940Z,19.58
2018-11-12T02:43:26.512Z,19.58
2018-11-12T02:44:58.086Z,19.55
2018-11-12T02:46:29.860Z,19.55
2018-11-12T02:48:01.232Z,19.46
2018-11-12T02:49:32.809Z,19.56
2018-11-12T02:51:04.378Z,19.55
2018-11-12T02:52:35.951Z,19.39
2018-11-12T02:54:07.525Z,19.33
2018-11-12T02:55:39.099Z,19.33
2018-11-12T02:57:10.672Z,19.32
2018-11-12T02:58:42.245Z,19.32
2018-11-12T03:00:13.815Z,19.31
2018-11-12T03:01:45.692Z,19.25
2018-11-12T03:03:16.961Z,19.22
2018-11-12T03:04:48.636Z,19.26
2018-11-12T03:06:20.110Z,19.25
2018-11-12T03:07:51.711Z,19.23
2018-11-12T03:09:23.252Z,19.28
2018-11-12T03:10:54.827Z,19.22
2018-11-12T03:12:26.399Z,19.13
2018-11-12T03:13:57.971Z,19.11
2018-11-12T03:15:29.545Z,19.13
2018-11-12T03:17:01.218Z,19.13
2018-11-12T03:18:32.689Z,19.06
2018-11-12T03:20:04.262Z,19.00
2018-11-12T03:21:35.838Z,19.02
2018-11-12T03:23:07.508Z,18.99
2018-11-12T03:24:38.981Z,18.98
2018-11-12T03:26:10.553Z,19.04
2018-11-12T03:27:42.216Z,19.07
2018-11-12T03:29:13.699Z,19.00
2018-11-12T03:30:45.281Z,18.99
2018-11-12T03:32:16.844Z,19.04
2018-11-12T03:33:48.417Z,18.99
2018-11-12T03:35:19.989Z,18.95
2018-11-12T03:38:23.144Z,18.88
2018-11-12T03:39:54.708Z,19.00
2018-11-12T03:41:26.482Z,18.94
2018-11-12T03:42:57.853Z,18.87
2018-11-12T03:44:29.425Z,18.85
2018-11-12T03:46:00.998Z,18.88
2018-11-12T03:47:32.671Z,18.82
2018-11-12T03:49:04.147Z,18.90
2018-11-12T03:50:35.715Z,18.92
2018-11-12T03:52:07.289Z,19.02
2018-11-12T03:53:38.860Z,19.04
2018-11-12T03:55:10.434Z,18.94
2018-11-12T03:56:42.009Z,18.99
2018-11-12T03:58:13.578Z,19.02
2018-11-12T03:59:45.250Z,18.91
2018-11-12T04:01:16.739Z,18.76
2018-11-12T04:02:48.307Z,18.73
2018-11-12T04:04:19.870Z,18.76
2018-11-12T04:05:51.440Z,18.81
2018-11-12T04:07:23.012Z,18.76
2018-11-12T04:08:54.591Z,18.87
2018-11-12T04:10:26.156Z,19.06
2018-11-12T04:11:57.731Z,18.99
2018-11-12T04:13:29.305Z,19.00
2018-11-12T04:15:00.874Z,19.14
2018-11-12T04:16:32.447Z,19.07
2018-11-12T04:18:04.222Z,19.22
2018-11-12T04:19:35.592Z,19.33
2018-11-12T04:21:07.163Z,19.28
2018-11-12T04:22:38.738Z,19.22
2018-11-12T04:24:10.308Z,19.11
2018-11-12T04:25:41.881Z,19.33
2018-11-12T04:27:13.452Z,19.28
2018-11-12T04:28:45.027Z,19.29
2018-11-12T04:30:16.599Z,19.31
2018-11-12T04:31:48.171Z,19.22
2018-11-12T04:33:19.745Z,19.06
2018-11-12T04:34:51.519Z,19.16
2018-11-12T04:36:22.988Z,19.21
2018-11-12T04:37:54.460Z,19.28
2018-11-12T04:39:26.034Z,19.22
2018-11-12T04:40:57.604Z,19.32
2018-11-12T04:42:29.176Z,19.31
2018-11-12T04:44:00.749Z,19.21
2018-11-12T04:45:32.359Z,19.10
2018-11-12T04:47:03.893Z,19.08
2018-11-12T04:48:35.567Z,19.00
2018-11-12T04:50:07.038Z,18.95
2018-11-12T04:51:38.611Z,18.99
2018-11-12T04:53:10.182Z,18.99
2018-11-12T04:54:41.855Z,19.06
2018-11-12T04:56:13.327Z,19.11
2018-11-12T04:57:44.900Z,19.06
2018-11-12T04:59:16.473Z,19.16
2018-11-12T05:00:48.047Z,19.18
2018-11-12T05:02:19.617Z,19.25
2018-11-12T05:03:51.188Z,19.36
2018-11-12T05:05:22.762Z,19.23
2018-11-12T05:08:25.908Z,19.28
2018-11-12T05:09:57.478Z,19.26
2018-11-12T05:11:29.051Z,19.13
2018-11-12T05:13:00.623Z,19.08
2018-11-12T05:14:32.294Z,19.00
2018-11-12T05:16:03.767Z,19.02
2018-11-12T05:17:35.341Z,18.99
2018-11-12T05:19:06.912Z,19.07
2018-11-12T05:20:38.587Z,19.02
2018-11-12T05:22:10.056Z,19.07
2018-11-12T05:23:41.630Z,18.94
2018-11-12T05:25:13.201Z,18.98
2018-11-12T05:26:44.773Z,19.07
2018-11-12T05:28:16.346Z,19.08
2018-11-12T05:29:47.919Z,19.10
2018-11-12T05:31:19.490Z,19.07
2018-11-12T05:32:51.465Z,19.04
2018-11-12T05:34:22.636Z,18.98
2018-11-12T05:35:54.208Z,18.94
2018-11-12T05:37:25.779Z,18.95
2018-11-12T05:38:57.352Z,19.06
2018-11-12T05:40:28.932Z,18.81
2018-11-12T05:42:00.496Z,18.99
2018-11-12T05:43:32.074Z,19.02
2018-11-12T05:45:03.717Z,18.87
2018-11-12T05:46:35.214Z,18.87
2018-11-12T05:48:06.785Z,18.91
2018-11-12T05:49:38.560Z,18.82
2018-11-12T05:51:10.133Z,18.76
2018-11-12T05:52:41.502Z,18.82
2018-11-12T05:54:13.074Z,18.76
2018-11-12T05:57:16.218Z,18.85
2018-11-12T05:58:47.806Z,18.88
2018-11-12T06:00:19.364Z,18.91
2018-11-12T06:04:54.288Z,18.87
2018-11-12T06:06:25.683Z,18.81
2018-11-12T06:07:57.224Z,18.72
2018-11-12T06:09:28.798Z,18.70
2018-11-12T06:11:00.506Z,18.78
2018-11-12T06:12:32.009Z,18.85
2018-11-12T06:14:03.653Z,18.72
2018-11-12T06:15:35.086Z,18.69
2018-11-12T06:17:06.658Z,18.58
2018-11-12T06:18:38.266Z,18.55
2018-11-12T06:20:09.804Z,18.50
2018-11-12T06:21:41.505Z,18.72
2018-11-12T06:23:13.060Z,18.76
2018-11-12T06:24:44.545Z,18.80
2018-11-12T06:26:16.125Z,18.66
2018-11-12T06:27:47.661Z,18.73
2018-11-12T06:29:19.335Z,18.80
2018-11-12T06:30:50.807Z,18.67
2018-11-12T06:32:22.378Z,18.72
2018-11-12T06:33:53.956Z,18.69
2018-11-12T06:35:25.522Z,18.73
2018-11-12T06:36:57.254Z,18.85
2018-11-12T06:38:28.679Z,18.87
2018-11-12T06:40:00.239Z,18.85
2018-11-12T06:41:31.810Z,18.90
2018-11-12T06:43:03.447Z,18.87
2018-11-12T06:44:34.954Z,18.88
2018-11-12T06:46:06.527Z,18.82
2018-11-12T06:47:38.499Z,18.85
2018-11-12T06:49:10.034Z,18.84
2018-11-12T06:50:41.242Z,18.87
2018-11-12T06:52:12.816Z,18.84
2018-11-12T06:53:44.487Z,18.92
2018-11-12T06:55:15.959Z,18.85
2018-11-12T06:56:47.531Z,18.87
2018-11-12T06:58:19.103Z,18.95
2018-11-12T06:59:50.677Z,18.98
2018-11-12T07:01:22.250Z,18.92
2018-11-12T07:02:54.754Z,19.00
2018-11-12T07:04:25.392Z,19.00
2018-11-12T07:05:57.065Z,18.94
2018-11-12T07:07:28.541Z,18.94
2018-11-12T07:09:00.109Z,18.99
2018-11-12T07:10:31.683Z,18.90
2018-11-12T07:12:03.253Z,18.88
2018-11-12T07:13:34.826Z,18.85
2018-11-12T07:15:06.397Z,18.85
2018-11-12T07:16:37.968Z,18.94
2018-11-12T07:18:09.641Z,18.95
2018-11-12T07:19:41.619Z,18.87
2018-11-12T07:21:12.684Z,18.91
2018-11-12T07:22:44.257Z,18.91
2018-11-12T07:24:16.029Z,18.91
2018-11-12T07:25:47.402Z,18.98
2018-11-12T07:27:18.972Z,18.84
2018-11-12T07:28:50.546Z,18.98
2018-11-12T07:30:22.117Z,18.98
2018-11-12T07:31:53.689Z,18.99
2018-11-12T07:33:25.275Z,19.02
2018-11-12T07:34:56.832Z,19.04
2018-11-12T07:36:28.406Z,19.07
2018-11-12T07:37:59.976Z,19.00
2018-11-12T07:39:31.549Z,19.10
2018-11-12T07:41:03.121Z,19.13
2018-11-12T07:42:34.796Z,19.11
2018-11-12T07:44:06.275Z,19.16
2018-11-12T07:45:37.839Z,19.10
2018-11-12T07:47:09.411Z,19.11
2018-11-12T07:48:40.995Z,19.14
2018-11-12T07:50:12.557Z,19.11
2018-11-12T07:51:44.131Z,19.08
2018-11-12T07:53:15.702Z,19.22
2018-11-12T07:54:47.375Z,19.22
2018-11-12T07:56:18.920Z,19.21
2018-11-12T07:57:50.420Z,19.28
2018-11-12T07:59:21.994Z,19.31
2018-11-12T08:00:53.672Z,19.33
2018-11-12T08:02:25.138Z,19.26
2018-11-12T08:03:56.711Z,19.29
2018-11-12T08:05:28.287Z,19.31
2018-11-12T08:06:59.859Z,19.29
2018-11-12T08:08:31.429Z,19.28
2018-11-12T08:10:03.005Z,19.32
2018-11-12T08:11:34.574Z,19.32
2018-11-12T08:13:06.148Z,19.44
2018-11-12T08:14:37.764Z,19.33
2018-11-12T08:16:09.297Z,19.36
2018-11-12T08:17:40.923Z,19.44
2018-11-12T08:19:12.540Z,19.47
2018-11-12T08:20:44.018Z,19.40
2018-11-12T08:22:15.590Z,19.46
2018-11-12T08:23:47.191Z,19.40
2018-11-12T08:25:18.866Z,19.48
2018-11-12T08:26:50.359Z,19.40
2018-11-12T08:28:21.878Z,19.41
2018-11-12T08:29:53.577Z,19.46
2018-11-12T08:31:25.077Z,19.50
2018-11-12T08:32:56.750Z,19.56
2018-11-12T08:34:28.474Z,19.58
2018-11-12T08:35:59.749Z,19.65
2018-11-12T08:37:31.458Z,19.59
2018-11-12T08:39:03.239Z,19.69
2018-11-12T08:40:34.604Z,19.73
2018-11-12T08:42:06.038Z,19.74
2018-11-12T08:43:37.609Z,19.78
2018-11-12T08:45:09.191Z,19.76
2018-11-12T08:46:40.848Z,19.81
2018-11-12T08:48:12.330Z,19.77
2018-11-12T08:49:45.197Z,19.84
2018-11-12T08:51:15.552Z,19.86
2018-11-12T08:52:47.132Z,19.84
2018-11-12T08:54:18.754Z,20.01
2018-11-12T08:55:50.532Z,19.94
2018-11-12T08:57:21.804Z,20.02
2018-11-12T08:58:53.398Z,20.03
2018-11-12T09:00:24.923Z,20.06
2018-11-12T09:01:56.701Z,20.16
2018-11-12T09:03:28.098Z,20.18
2018-11-12T09:06:31.257Z,20.32
2018-11-12T09:08:02.883Z,20.33
2018-11-12T09:11:05.976Z,20.38
2018-11-12T09:12:38.191Z,20.54
2018-11-12T09:14:09.249Z,20.50
2018-11-12T09:15:40.808Z,20.62
2018-11-12T09:18:43.931Z,20.64
2018-11-12T09:20:15.393Z,20.57
2018-11-12T09:21:47.085Z,20.73
2018-11-12T09:23:18.679Z,20.72
2018-11-12T09:24:50.117Z,20.61
2018-11-12T09:26:22.225Z,20.73
2018-11-12T09:27:53.803Z,20.79
2018-11-12T09:29:24.903Z,20.84
2018-11-12T09:30:57.962Z,20.87
2018-11-12T09:32:28.134Z,20.85
2018-11-12T09:33:59.623Z,20.99
2018-11-12T09:35:31.311Z,20.92
2018-11-12T09:37:02.849Z,21.10
2018-11-12T09:38:34.598Z,21.04
2018-11-12T09:40:05.887Z,21.16
2018-11-12T09:41:38.727Z,21.07
2018-11-12T09:43:09.951Z,21.17
2018-11-12T09:44:40.831Z,21.28
2018-11-12T09:46:12.933Z,21.32
2018-11-12T09:49:15.615Z,21.40
2018-11-12T09:50:47.049Z,21.32
2018-11-12T09:52:18.626Z,21.37
2018-11-12T09:53:50.471Z,21.43
2018-11-12T09:55:21.621Z,21.42
2018-11-12T09:56:53.504Z,21.50
2018-11-12T09:58:24.999Z,21.50
2018-11-12T09:59:56.375Z,21.50
2018-11-12T10:01:29.130Z,21.49
2018-11-12T10:03:00.919Z,21.59
2018-11-12T10:04:32.706Z,21.61
2018-11-12T10:06:04.151Z,21.79
2018-11-12T10:07:35.818Z,21.74
2018-11-12T10:09:08.804Z,21.67
2018-11-12T10:10:39.504Z,21.58
2018-11-12T10:12:12.113Z,21.62
2018-11-12T10:13:43.051Z,21.62
2018-11-12T10:15:14.921Z,21.77
2018-11-12T10:16:47.265Z,21.77
2018-11-12T10:18:15.246Z,21.62
2018-11-12T10:19:48.275Z,21.62
2018-11-12T10:22:50.401Z,21.74
2018-11-12T10:24:22.590Z,21.98
2018-11-12T10:25:53.371Z,22.10
2018-11-12T10:27:24.925Z,22.40
2018-11-12T10:28:56.901Z,22.72
2018-11-12T10:30:28.229Z,22.67
2018-11-12T10:31:59.437Z,22.62
2018-11-12T10:33:31.582Z,23.35
2018-11-12T10:35:03.052Z,23.38
2018-11-12T10:36:34.283Z,22.83
2018-11-12T10:38:06.108Z,22.73
2018-11-12T10:39:37.400Z,22.52
2018-11-12T10:41:10.002Z,22.57
2018-11-12T10:42:41.191Z,23.70
2018-11-12T10:44:13.432Z,23.83
2018-11-12T10:45:45.565Z,23.35
2018-11-12T10:47:15.549Z,23.35
2018-11-12T10:48:46.799Z,24.69
2018-11-12T10:50:19.448Z,25.23
2018-11-12T10:51:50.238Z,24.91
2018-11-12T10:53:21.612Z,25.03
2018-11-12T10:55:04.900Z,25.88
2018-11-12T10:56:25.236Z,26.23
2018-11-12T10:57:56.285Z,25.92
2018-11-12T11:00:59.989Z,24.84
2018-11-12T11:02:31.629Z,25.25
2018-11-12T11:04:03.284Z,25.79
2018-11-12T11:05:34.403Z,24.37
2018-11-12T11:08:37.522Z,24.96
2018-11-12T11:10:09.310Z,24.60
2018-11-12T11:11:40.786Z,24.40
2018-11-12T11:13:12.260Z,24.45
2018-11-12T11:14:44.008Z,25.14
2018-11-12T11:17:47.052Z,24.62
2018-11-12T11:19:18.710Z,24.37
2018-11-12T11:20:50.256Z,25.50
2018-11-12T11:22:21.611Z,26.20
2018-11-12T11:25:24.880Z,25.47
2018-11-12T11:26:56.427Z,24.64
2018-11-12T11:28:28.295Z,25.52
2018-11-12T11:30:00.043Z,26.62
2018-11-12T11:31:31.236Z,25.46
2018-11-12T11:33:03.330Z,25.58
2018-11-12T11:36:06.403Z,26.43
2018-11-12T11:37:38.897Z,25.65
2018-11-12T11:40:40.749Z,24.80
2018-11-12T11:42:13.827Z,25.94
2018-11-12T11:43:44.076Z,25.72
2018-11-12T11:45:16.154Z,24.98
2018-11-12T11:46:48.782Z,25.43
2018-11-12T11:48:18.821Z,26.25
2018-11-12T11:49:50.907Z,26.21
2018-11-12T11:51:21.982Z,25.24
2018-11-12T11:52:54.108Z,25.67
2018-11-12T11:54:25.711Z,26.35
2018-11-12T11:55:57.734Z,25.76
2018-11-12T11:57:30.729Z,26.44
2018-11-12T11:58:59.888Z,27.09
2018-11-12T12:00:31.548Z,27.40
2018-11-12T12:02:02.963Z,27.97
2018-11-12T12:03:34.821Z,26.80
2018-11-12T12:05:06.034Z,26.69
2018-11-12T12:06:37.904Z,26.73
2018-11-12T12:08:09.311Z,27.09
2018-11-12T12:09:41.139Z,26.88
2018-11-12T12:11:12.564Z,26.88
2018-11-12T12:14:15.889Z,26.43
2018-11-12T12:15:47.280Z,26.23
2018-11-12T12:17:19.232Z,26.87
2018-11-12T12:18:50.552Z,27.19
2018-11-12T12:20:21.780Z,27.67
2018-11-12T12:21:53.616Z,28.03
2018-11-12T12:23:25.336Z,28.54
2018-11-12T12:24:56.823Z,28.90
2018-11-12T12:26:28.336Z,28.17
2018-11-12T12:28:00.115Z,28.37
2018-11-12T12:32:35.042Z,27.97
2018-11-12T12:34:06.009Z,27.34
2018-11-12T12:35:37.620Z,27.39
2018-11-12T12:37:09.721Z,28.62
2018-11-12T12:38:41.098Z,28.73
2018-11-12T12:40:12.662Z,28.24
2018-11-12T12:43:15.497Z,28.89
2018-11-12T12:44:47.321Z,28.76
2018-11-12T12:47:50.252Z,28.17
2018-11-12T12:50:53.512Z,28.22
2018-11-12T12:52:25.453Z,28.06
2018-11-12T12:55:28.792Z,29.57
2018-11-12T12:57:00.308Z,29.61
2018-11-12T12:58:31.483Z,29.95
2018-11-12T13:01:34.953Z,29.08
2018-11-12T13:03:06.320Z,29.63
2018-11-12T13:04:38.094Z,29.67
2018-11-12T13:09:12.463Z,30.82
2018-11-12T13:12:15.640Z,31.65
2018-11-12T13:13:47.481Z,31.54
2018-11-12T13:15:19.097Z,31.19
2018-11-12T13:16:50.933Z,29.42
2018-11-12T13:19:53.615Z,29.80
2018-11-12T13:21:25.202Z,30.43
2018-11-12T13:22:56.963Z,30.67
2018-11-12T13:24:28.572Z,28.66
2018-11-12T13:25:59.961Z,28.51
2018-11-12T13:27:31.678Z,28.95
2018-11-12T13:29:03.712Z,27.97
2018-11-12T13:30:35.741Z,29.09
2018-11-12T13:32:07.257Z,29.06
2018-11-12T13:33:38.412Z,29.83
2018-11-12T13:35:11.523Z,29.49
2018-11-12T13:36:41.688Z,29.02
2018-11-12T13:38:13.900Z,28.67
2018-11-12T13:39:45.714Z,29.15
2018-11-12T13:41:16.992Z,29.52
2018-11-12T13:42:47.751Z,29.76
2018-11-12T13:44:21.141Z,30.91
2018-11-12T13:45:50.807Z,32.10
2018-11-12T13:47:22.504Z,33.15
2018-11-12T13:48:55.089Z,32.32
2018-11-12T13:50:25.653Z,31.50
2018-11-12T13:51:58.377Z,30.61
2018-11-12T13:53:29.510Z,31.13
2018-11-12T13:55:02.735Z,31.36
2018-11-12T13:56:32.968Z,30.98
2018-11-12T13:58:04.214Z,30.84
2018-11-12T13:59:35.292Z,31.44
2018-11-12T14:02:38.591Z,30.80
2018-11-12T14:05:41.903Z,31.35
2018-11-12T14:07:12.844Z,31.34
2018-11-12T14:10:16.070Z,30.60
2018-11-12T14:11:47.766Z,31.85
2018-11-12T14:13:19.218Z,33.03
2018-11-12T14:14:51.326Z,33.87
2018-11-12T14:16:22.704Z,34.05
2018-11-12T14:17:54.201Z,33.35
2018-11-12T14:20:57.192Z,31.88
2018-11-12T14:22:28.791Z,32.11
2018-11-12T14:24:00.885Z,31.56
2018-11-12T14:25:31.948Z,31.19
2018-11-12T14:27:03.543Z,31.95
2018-11-12T14:28:35.404Z,31.66
2018-11-12T14:31:39.019Z,31.56
2018-11-12T14:33:09.921Z,31.61
2018-11-12T14:36:13.116Z,32.50
2018-11-12T14:37:45.393Z,32.96
2018-11-12T14:39:16.298Z,33.44
2018-11-12T14:40:47.861Z,33.44
2018-11-12T14:42:19.438Z,33.97
2018-11-12T14:43:51.718Z,33.95
2018-11-12T14:48:26.008Z,32.74
2018-11-12T14:49:57.513Z,33.56
2018-11-12T14:51:28.987Z,33.66
2018-11-12T14:53:00.578Z,33.87
2018-11-12T14:54:32.371Z,33.01
2018-11-12T14:56:03.960Z,32.48
2018-11-12T14:57:35.380Z,33.26
2018-11-12T14:59:06.943Z,33.38
2018-11-12T15:00:38.567Z,32.62
2018-11-12T15:02:10.125Z,32.67
2018-11-12T15:03:42.264Z,33.44
2018-11-12T15:05:14.321Z,33.60
2018-11-12T15:06:44.902Z,33.69
2018-11-12T15:08:16.992Z,33.16
2018-11-12T15:09:48.127Z,32.65
2018-11-12T15:11:20.250Z,32.19
2018-11-12T15:12:51.473Z,31.72
2018-11-12T15:14:23.689Z,31.39
2018-11-12T15:15:54.674Z,31.39
2018-11-12T15:17:26.937Z,30.16
2018-11-12T15:20:30.341Z,29.34
2018-11-12T15:22:02.012Z,29.08
2018-11-12T15:23:32.554Z,29.12
2018-11-12T15:25:04.810Z,29.65
2018-11-12T15:26:36.677Z,30.22
2018-11-12T15:28:07.740Z,30.60
2018-11-12T15:29:39.342Z,30.49
2018-11-12T15:31:10.856Z,29.85
2018-11-12T15:32:42.245Z,29.26
2018-11-12T15:34:13.744Z,29.16
2018-11-12T15:35:45.453Z,29.14
2018-11-12T15:37:18.121Z,28.86
2018-11-12T15:38:48.533Z,28.48
2018-11-12T15:40:20.365Z,28.29
2018-11-12T15:41:52.368Z,28.39
2018-11-12T15:43:23.351Z,28.22
2018-11-12T15:46:26.725Z,27.79
2018-11-12T15:47:58.541Z,28.09
2018-11-12T15:49:29.412Z,28.39
2018-11-12T15:51:01.184Z,28.81
2018-11-12T15:52:33.601Z,29.26
2018-11-12T15:54:04.659Z,29.63
2018-11-12T15:57:08.321Z,29.83
2018-11-12T15:58:38.918Z,30.35
2018-11-12T16:00:10.477Z,28.83
2018-11-12T16:01:42.817Z,29.06
2018-11-12T16:03:13.584Z,29.36
2018-11-12T16:04:45.884Z,29.36
2018-11-12T16:06:16.911Z,29.33
2018-11-12T16:07:48.561Z,29.86
2018-11-12T16:09:20.796Z,29.02
2018-11-12T16:10:51.824Z,29.33
2018-11-12T16:12:23.496Z,29.58
2018-11-12T16:13:54.756Z,29.64
2018-11-12T16:15:26.357Z,29.53
2018-11-12T16:16:57.965Z,29.58
2018-11-12T16:20:01.318Z,29.79
2018-11-12T16:21:32.961Z,28.93
2018-11-12T16:23:04.585Z,28.48
2018-11-12T16:24:35.921Z,28.78
2018-11-12T16:26:07.431Z,28.95
2018-11-12T16:27:39.363Z,28.86
2018-11-12T16:30:42.179Z,29.21
2018-11-12T16:32:14.221Z,28.49
2018-11-12T16:35:17.071Z,27.84
2018-11-12T16:36:49.500Z,28.48
2018-11-12T16:38:20.377Z,28.11
2018-11-12T16:39:52.624Z,26.91
2018-11-12T16:41:23.496Z,26.60
2018-11-12T16:42:55.241Z,26.72
2018-11-12T16:44:26.608Z,26.32
2018-11-12T16:45:58.144Z,26.09
2018-11-12T16:47:29.817Z,26.13
2018-11-12T16:49:01.203Z,25.72
2018-11-12T16:50:33.280Z,25.82
2018-11-12T16:52:04.647Z,25.99
2018-11-12T16:53:36.104Z,25.67
2018-11-12T16:55:07.668Z,25.17
2018-11-12T16:56:39.449Z,25.20
2018-11-12T16:58:13.044Z,24.81
2018-11-12T16:59:42.662Z,25.06
2018-11-12T17:02:45.807Z,24.52
2018-11-12T17:04:17.044Z,24.20
2018-11-12T17:05:48.788Z,24.18
2018-11-12T17:07:20.492Z,24.27
2018-11-12T17:08:52.507Z,24.20
2018-11-12T17:10:24.553Z,24.30
2018-11-12T17:11:55.166Z,23.91
2018-11-12T17:13:26.708Z,24.13
2018-11-12T17:14:58.140Z,24.13
2018-11-12T17:16:29.937Z,24.42
2018-11-12T17:19:33.458Z,23.97
2018-11-12T17:21:05.174Z,23.78
2018-11-12T17:22:36.806Z,23.48
2018-11-12T17:24:08.073Z,23.58
2018-11-12T17:25:39.405Z,23.46
2018-11-12T17:27:10.733Z,23.51
2018-11-12T17:28:42.614Z,23.83
2018-11-12T17:31:45.556Z,23.85
2018-11-12T17:33:18.053Z,23.79
2018-11-12T17:34:48.719Z,23.76
2018-11-12T17:36:20.290Z,23.95
2018-11-12T17:39:24.038Z,24.00
2018-11-12T17:40:55.307Z,23.78
2018-11-12T17:45:31.009Z,23.22
2018-11-12T17:47:01.578Z,23.27
2018-11-12T17:48:33.346Z,23.23
2018-11-12T17:50:04.493Z,23.57
2018-11-12T17:51:36.172Z,23.85
2018-11-12T17:53:07.920Z,24.10
2018-11-12T17:54:40.250Z,23.61
2018-11-12T17:56:11.645Z,23.22
2018-11-12T17:57:42.575Z,23.20
2018-11-12T17:59:14.810Z,23.38
2018-11-12T18:00:45.792Z,23.36
2018-11-12T18:02:17.601Z,23.20
2018-11-12T18:03:48.892Z,23.16
2018-11-12T18:05:20.228Z,23.04
2018-11-12T18:06:52.099Z,22.75
2018-11-12T18:08:24.247Z,22.94
2018-11-12T18:09:55.483Z,22.90
2018-11-12T18:11:27.107Z,23.00
2018-11-12T18:12:58.076Z,23.46
2018-11-12T18:14:29.749Z,23.43
2018-11-12T18:16:01.516Z,23.22
2018-11-12T18:17:35.214Z,22.95
2018-11-12T18:19:04.772Z,22.77
2018-11-12T18:20:36.166Z,22.95
2018-11-12T18:22:07.750Z,22.97
2018-11-12T18:23:39.317Z,22.91
2018-11-12T18:25:10.675Z,22.76
2018-11-12T18:28:13.836Z,22.76
2018-11-12T18:29:45.897Z,22.51
2018-11-12T18:32:48.600Z,22.75
2018-11-12T18:34:20.917Z,22.60
2018-11-12T18:35:52.024Z,22.62
2018-11-12T18:37:23.508Z,22.75
2018-11-12T18:38:55.259Z,22.61
2018-11-12T18:41:58.339Z,22.51
2018-11-12T18:43:29.651Z,22.75
2018-11-12T18:45:01.242Z,22.60
2018-11-12T18:46:32.972Z,22.46
2018-11-12T18:48:04.381Z,22.27
2018-11-12T18:49:36.319Z,22.28
2018-11-12T18:51:07.749Z,22.49
2018-11-12T18:52:39.517Z,22.60
2018-11-12T18:54:11.202Z,22.60
2018-11-12T18:55:42.652Z,22.54
2018-11-12T18:57:14.081Z,22.42
2018-11-12T18:58:45.635Z,22.39
2018-11-12T19:00:17.499Z,22.22
2018-11-12T19:01:48.619Z,22.35
2018-11-12T19:03:20.106Z,22.36
2018-11-12T19:04:52.776Z,22.40
2018-11-12T19:06:23.569Z,22.54
2018-11-12T19:07:55.147Z,22.58
2018-11-12T19:10:58.985Z,22.75
2018-11-12T19:12:30.561Z,22.58
2018-11-12T19:15:33.630Z,22.27
2018-11-12T19:17:04.419Z,22.36
2018-11-12T19:18:35.877Z,22.28
2018-11-12T19:20:07.549Z,22.05
2018-11-12T19:21:39.171Z,21.90
2018-11-12T19:23:12.770Z,22.09
2018-11-12T19:24:42.632Z,22.27
2018-11-12T19:26:14.039Z,22.33
2018-11-12T19:27:45.520Z,22.51
2018-11-12T19:29:17.030Z,22.36
2018-11-12T19:30:49.188Z,22.20
2018-11-12T19:32:20.061Z,21.94
2018-11-12T19:33:51.839Z,21.94
2018-11-12T19:35:23.213Z,21.90
2018-11-12T19:36:54.792Z,22.07
2018-11-12T19:38:26.365Z,22.12
2018-11-12T19:39:58.144Z,22.03
2018-11-12T19:41:29.518Z,22.21
2018-11-12T19:44:32.670Z,22.14
2018-11-12T19:47:35.823Z,22.05
2018-11-12T19:49:07.399Z,22.15
2018-11-12T19:50:39.081Z,22.18
2018-11-12T19:52:11.082Z,22.20
2018-11-12T19:53:42.131Z,22.24
2018-11-12T19:55:13.704Z,22.22
2018-11-12T19:56:45.282Z,22.37
2018-11-12T19:59:48.661Z,22.03
2018-11-12T20:01:20.009Z,22.03
2018-11-12T20:02:51.789Z,22.07
2018-11-12T20:04:23.163Z,22.28
2018-11-12T20:07:26.314Z,22.06
2018-11-12T20:10:29.567Z,21.90
2018-11-12T20:12:01.044Z,21.72
2018-11-12T20:13:32.618Z,21.77
2018-11-12T20:15:04.196Z,21.69
2018-11-12T20:16:35.771Z,21.61
2018-11-12T20:18:07.379Z,21.56
2018-11-12T20:19:38.922Z,21.54
2018-11-12T20:21:10.498Z,21.47
2018-11-12T20:22:42.073Z,21.59
2018-11-12T20:24:13.648Z,21.61
2018-11-12T20:25:45.223Z,21.69
2018-11-12T20:28:48.475Z,21.06
2018-11-12T20:30:19.954Z,20.98
2018-11-12T20:31:51.595Z,21.16
2018-11-12T20:33:23.101Z,21.17
2018-11-12T20:34:54.775Z,21.32
2018-11-12T20:36:26.250Z,21.25
2018-11-12T20:37:57.825Z,21.43
2018-11-12T20:39:29.400Z,21.42
2018-11-12T20:41:00.975Z,21.47
2018-11-12T20:42:32.552Z,21.61
2018-11-12T20:44:04.125Z,21.47
2018-11-12T20:45:35.701Z,21.54
2018-11-12T20:47:07.904Z,21.65
2018-11-12T20:48:38.850Z,21.62
2018-11-12T20:50:10.425Z,21.67
2018-11-12T20:51:41.999Z,21.35
2018-11-12T20:53:13.575Z,21.42
2018-11-12T20:54:45.150Z,21.40
2018-11-12T20:56:17.029Z,21.47
2018-11-12T20:57:48.301Z,21.35
2018-11-12T20:59:19.876Z,21.22
2018-11-12T21:00:51.450Z,21.34
2018-11-12T21:02:23.050Z,21.46
2018-11-12T21:03:54.600Z,21.47
2018-11-12T21:05:26.377Z,21.54
2018-11-12T21:06:57.750Z,21.65
2018-11-12T21:08:29.325Z,21.53
2018-11-12T21:11:32.532Z,21.49